Time;durP1;ratioP1;P1;durP2;ratioP2;P2;SDS_P1;SDS_P2;PMS_P1;PMS_P2;Temp;Humidity;BMP_temperature;BMP_pressure;BME280_temperature;BME280_humidity;BME280_pressure;Samples;Min_cycle;Max_cycle;Signal;HPM_P1;HPM_P2
2022/08/19 00:04:13;;;;;;;10.90;9.20;;;27.90;60.30;;;;;;221111;1262;25274;-62
2022/08/19 00:09:18;;;;;;;10.40;8.10;;;27.90;60.30;;;;;;221015;1265;22772;-61
2022/08/19 00:14:22;;;;;;;9.60;8.70;;;27.90;60.40;;;;;;221330;1262;22564;-62
2022/08/19 00:19:26;;;;;;;11.50;9.00;;;27.90;60.30;;;;;;221059;1262;26579;-63
2022/08/19 00:24:28;;;;;;;12.20;9.30;;;27.80;60.70;;;;;;221437;1262;23953;-61
2022/08/19 00:29:31;;;;;;;10.00;9.00;;;27.90;60.60;;;;;;221507;1262;25292;-62
2022/08/19 00:34:33;;;;;;;9.80;8.80;;;27.80;60.30;;;;;;221253;1262;22550;-61
2022/08/19 00:39:38;;;;;;;13.00;8.50;;;27.80;60.30;;;;;;221361;1262;25294;-62
2022/08/19 00:44:41;;;;;;;9.90;8.90;;;27.80;60.70;;;;;;221235;1261;22525;-61
2022/08/19 00:49:50;;;;;;;10.30;9.30;;;27.80;60.40;;;;;;221418;1261;22556;-62
2022/08/19 00:54:53;;;;;;;9.80;8.40;;;27.80;60.30;;;;;;221519;1262;24315;-63
2022/08/19 00:59:58;;;;;;;9.30;8.10;;;27.80;60.30;;;;;;221381;1262;22541;-60
2022/08/19 01:05:08;;;;;;;11.60;8.40;;;27.80;60.30;;;;;;221326;1262;22697;-63
2022/08/19 01:10:14;;;;;;;9.50;8.60;;;27.80;60.30;;;;;;221684;1262;25298;-61
2022/08/19 01:15:21;;;;;;;12.00;8.80;;;27.80;60.30;;;;;;221159;1262;24202;-63
2022/08/19 01:20:24;;;;;;;8.80;7.90;;;27.80;60.40;;;;;;221564;1261;22552;-62
2022/08/19 01:25:35;;;;;;;9.30;8.30;;;27.80;60.40;;;;;;221406;1265;22531;-64
2022/08/19 01:30:40;;;;;;;12.00;8.30;;;27.80;60.40;;;;;;221383;1264;22528;-61
2022/08/19 01:35:50;;;;;;;10.20;8.50;;;27.80;60.40;;;;;;221212;1262;23906;-62
2022/08/19 01:40:53;;;;;;;9.50;8.40;;;27.70;60.80;;;;;;221600;1263;24704;-59
2022/08/19 01:45:55;;;;;;;9.30;8.40;;;27.70;60.60;;;;;;221464;1262;22541;-61
2022/08/19 01:50:57;;;;;;;8.80;7.90;;;27.70;60.60;;;;;;221420;1262;22554;-61
2022/08/19 01:56:00;;;;;;;9.40;8.30;;;27.70;60.60;;;;;;221282;1262;24536;-62
2022/08/19 02:01:04;;;;;;;9.70;8.30;;;27.70;60.60;;;;;;221236;1262;26484;-61
2022/08/19 02:06:06;;;;;;;9.00;7.80;;;27.70;60.70;;;;;;221594;1262;22528;-62
2022/08/19 02:11:17;;;;;;;10.30;7.80;;;27.70;60.60;;;;;;221399;1262;22574;-62
2022/08/19 02:16:21;;;;;;;9.80;8.10;;;27.70;60.60;;;;;;221544;1262;24523;-61
2022/08/19 02:21:24;;;;;;;9.60;8.10;;;27.70;60.60;;;;;;221541;1262;24222;-60
2022/08/19 02:26:27;;;;;;;8.50;7.60;;;27.70;60.90;;;;;;221508;1262;22530;-61
2022/08/19 02:31:29;;;;;;;8.80;7.90;;;27.70;60.50;;;;;;221285;1262;22784;-62
2022/08/19 02:36:31;;;;;;;9.00;7.90;;;27.60;60.50;;;;;;221659;1262;25098;-62
2022/08/19 02:41:34;;;;;;;9.30;8.40;;;27.70;60.90;;;;;;221223;1262;22687;-62
2022/08/19 02:46:36;;;;;;;8.40;7.50;;;27.60;60.60;;;;;;221701;1262;22690;-65
2022/08/19 02:51:43;;;;;;;8.80;8.00;;;27.70;60.60;;;;;;221607;1262;22569;-62
2022/08/19 02:56:46;;;;;;;8.50;7.70;;;27.60;60.60;;;;;;221312;1262;22867;-63
2022/08/19 03:01:48;;;;;;;8.80;7.60;;;27.60;60.90;;;;;;221361;1262;25250;-61
2022/08/19 03:06:51;;;;;;;8.90;8.00;;;27.60;61.00;;;;;;221530;1262;25297;-62
2022/08/19 03:11:53;;;;;;;9.00;8.00;;;27.60;60.90;;;;;;221084;1262;22570;-63
2022/08/19 03:16:55;;;;;;;10.70;8.50;;;27.60;60.60;;;;;;221158;1265;25416;-63
2022/08/19 03:21:58;;;;;;;7.60;6.70;;;27.60;60.00;;;;;;220922;1265;22565;-62
2022/08/19 03:27:01;;;;;;;11.40;8.30;;;27.60;60.60;;;;;;221405;1265;25427;-61
2022/08/19 03:32:05;;;;;;;8.80;7.90;;;27.60;60.60;;;;;;221252;1265;22838;-60
2022/08/19 03:37:12;;;;;;;8.80;7.60;;;27.60;60.60;;;;;;221231;1262;22552;-63
2022/08/19 03:42:14;;;;;;;9.80;8.10;;;27.60;60.60;;;;;;221459;1262;25484;-62
2022/08/19 03:47:37;;;;;;;9.90;7.50;;;27.60;60.60;;;;;;221387;1265;22640;-60
2022/08/19 03:52:39;;;;;;;9.30;8.00;;;27.50;60.90;;;;;;221291;1265;24249;-62
2022/08/19 03:57:48;;;;;;;9.00;8.10;;;27.50;60.60;;;;;;221054;1264;25358;-62
2022/08/19 04:02:50;;;;;;;8.30;7.50;;;27.50;60.60;;;;;;221189;1262;22542;-63
2022/08/19 04:08:05;;;;;;;8.80;7.80;;;27.50;60.70;;;;;;221358;1262;24351;-60
2022/08/19 04:13:12;;;;;;;11.40;8.00;;;27.60;60.70;;;;;;221215;1262;22554;-61
2022/08/19 04:18:15;;;;;;;8.80;7.90;;;27.50;60.70;;;;;;221175;1265;24256;-63
2022/08/19 04:23:18;;;;;;;9.30;8.30;;;27.50;61.00;;;;;;221075;1262;22567;-62
2022/08/19 04:28:21;;;;;;;10.10;7.70;;;27.50;60.70;;;;;;221599;1262;22623;-62
2022/08/19 04:33:25;;;;;;;10.90;8.40;;;27.50;60.70;;;;;;221459;1262;25289;-62
2022/08/19 04:38:31;;;;;;;9.80;8.50;;;27.50;60.80;;;;;;221492;1262;22547;-61
2022/08/19 04:43:40;;;;;;;9.20;8.10;;;27.50;60.90;;;;;;221554;1263;22551;-63
2022/08/19 04:48:43;;;;;;;8.70;7.80;;;27.50;60.90;;;;;;221492;1262;24958;-64
2022/08/19 04:53:53;;;;;;;10.60;8.10;;;27.50;60.90;;;;;;219999;1262;1649801;-61
2022/08/19 04:59:03;;;;;;;8.90;8.00;;;27.50;60.90;;;;;;221358;1262;24061;-60
2022/08/19 05:04:07;;;;;;;8.10;7.30;;;27.60;61.30;;;;;;221226;1262;22557;-66
2022/08/19 05:09:10;;;;;;;9.60;8.60;;;27.50;60.90;;;;;;221349;1262;26477;-60
2022/08/19 05:14:28;;;;;;;8.60;7.70;;;27.50;61.40;;;;;;221192;1262;22585;-61
2022/08/19 05:25:13;;;;;;;12.00;8.70;;;27.50;61.10;;;;;;221096;1262;24420;-61
2022/08/19 05:30:17;;;;;;;9.50;8.50;;;27.50;61.10;;;;;;221673;1262;22521;-65
2022/08/19 05:35:23;;;;;;;11.50;9.30;;;27.60;61.30;;;;;;221628;1262;22558;-61
2022/08/19 05:40:26;;;;;;;12.30;9.10;;;27.50;61.30;;;;;;221150;1262;25500;-63
2022/08/19 05:45:30;;;;;;;10.20;8.70;;;27.60;61.40;;;;;;221609;1262;24303;-63
2022/08/19 05:50:32;;;;;;;11.00;9.10;;;27.50;61.40;;;;;;221510;1263;22551;-61
2022/08/19 05:55:38;;;;;;;10.50;8.40;;;27.60;61.50;;;;;;221427;1265;22595;-62
2022/08/19 06:00:44;;;;;;;11.60;9.10;;;27.50;61.40;;;;;;221379;1265;22567;-62
2022/08/19 06:05:46;;;;;;;10.50;9.30;;;27.60;61.50;;;;;;221080;1263;22705;-61
2022/08/19 06:10:53;;;;;;;10.30;8.80;;;27.60;61.40;;;;;;221099;1262;22613;-61
2022/08/19 06:15:56;;;;;;;10.20;8.50;;;27.60;61.80;;;;;;221247;1261;24245;-64
2022/08/19 06:20:58;;;;;;;10.40;9.30;;;27.60;61.80;;;;;;221584;1262;22564;-58
2022/08/19 06:26:00;;;;;;;10.70;9.30;;;27.60;61.50;;;;;;221359;1263;25368;-61
2022/08/19 06:31:07;;;;;;;11.30;9.50;;;27.60;61.50;;;;;;221551;1262;24295;-62
2022/08/19 06:36:17;;;;;;;10.40;8.90;;;27.70;61.60;;;;;;221363;1265;24283;-60
2022/08/19 06:41:20;;;;;;;9.80;8.50;;;27.60;61.50;;;;;;221513;1262;22551;-60
2022/08/19 06:46:23;;;;;;;11.20;9.70;;;27.60;61.60;;;;;;221185;1262;22720;-63
2022/08/19 06:51:26;;;;;;;10.50;9.30;;;27.70;61.80;;;;;;221260;1265;22545;-60
2022/08/19 06:56:34;;;;;;;10.70;9.60;;;27.70;61.70;;;;;;220971;1262;23730;-59
2022/08/19 07:01:45;;;;;;;10.20;9.00;;;27.70;61.80;;;;;;220965;1265;24111;-63
2022/08/19 07:06:48;;;;;;;10.90;9.40;;;27.70;62.10;;;;;;221391;1265;22539;-63
2022/08/19 07:11:56;;;;;;;10.60;9.30;;;27.70;61.80;;;;;;221461;1263;22525;-65
2022/08/19 07:16:59;;;;;;;11.20;9.40;;;27.70;61.80;;;;;;221080;1262;25226;-61
2022/08/19 07:22:04;;;;;;;10.60;9.40;;;27.80;62.00;;;;;;221000;1262;23029;-63
2022/08/19 07:27:09;;;;;;;12.50;9.90;;;27.80;62.10;;;;;;221298;1265;22703;-63
2022/08/19 07:32:18;;;;;;;10.60;9.50;;;27.80;62.10;;;;;;221525;1266;22780;-61
2022/08/19 07:37:20;;;;;;;11.50;10.10;;;27.80;62.10;;;;;;221155;1262;22559;-62
2022/08/19 07:42:29;;;;;;;10.90;9.70;;;27.80;62.10;;;;;;221403;1262;22579;-65
2022/08/19 07:47:33;;;;;;;11.50;9.20;;;27.90;62.20;;;;;;221199;1262;22556;-61
2022/08/19 07:52:52;;;;;;;10.80;9.60;;;27.90;62.10;;;;;;221158;1262;24134;-62
2022/08/19 07:57:55;;;;;;;10.60;9.50;;;27.90;62.10;;;;;;221730;1263;24159;-61
2022/08/19 08:02:57;;;;;;;10.30;9.20;;;27.90;62.10;;;;;;221336;1262;24204;-67
2022/08/19 08:13:20;;;;;;;16.40;9.10;;;27.90;62.50;;;;;;221121;1263;22700;-60
2022/08/19 08:18:25;;;;;;;10.40;9.30;;;28.00;62.20;;;;;;221003;1262;22577;-62
2022/08/19 08:23:32;;;;;;;11.20;9.30;;;28.00;62.20;;;;;;221068;1265;23177;-60
2022/08/19 08:28:34;;;;;;;10.30;9.30;;;28.00;62.10;;;;;;221349;1262;22628;-59
2022/08/19 08:33:36;;;;;;;10.10;9.00;;;28.00;62.10;;;;;;221077;1265;25394;-59
2022/08/19 08:38:40;;;;;;;9.70;8.40;;;28.10;61.50;;;;;;220723;1265;22557;-61
2022/08/19 08:43:47;;;;;;;10.70;9.30;;;28.10;61.60;;;;;;221672;1265;25285;-60
2022/08/19 08:48:57;;;;;;;10.50;9.00;;;28.20;61.50;;;;;;220969;1262;24204;-59
2022/08/19 08:54:06;;;;;;;10.40;8.60;;;28.20;61.40;;;;;;222278;1265;22593;-60
2022/08/19 08:59:26;;;;;;;10.00;8.90;;;28.20;61.40;;;;;;221068;1262;22716;-61
2022/08/19 09:04:31;;;;;;;10.30;9.20;;;28.20;61.40;;;;;;221233;1265;22536;-61
2022/08/19 09:09:47;;;;;;;10.00;8.80;;;28.30;61.40;;;;;;221156;1265;25377;-61
2022/08/19 09:14:53;;;;;;;10.30;9.00;;;28.30;61.70;;;;;;221214;1265;23927;-61
2022/08/19 09:20:08;;;;;;;10.20;8.50;;;28.30;61.30;;;;;;221323;1265;25448;-63
2022/08/19 09:25:14;;;;;;;9.80;8.70;;;28.40;61.30;;;;;;221384;1265;22618;-60
2022/08/19 09:30:22;;;;;;;10.30;9.30;;;28.40;61.20;;;;;;221080;1265;22661;-57
2022/08/19 09:35:35;;;;;;;9.90;8.90;;;28.40;61.10;;;;;;221187;1265;22528;-62
2022/08/19 09:40:54;;;;;;;10.50;9.30;;;28.40;61.10;;;;;;221490;1265;22528;-62
2022/08/19 09:46:00;;;;;;;12.30;9.30;;;28.50;61.00;;;;;;221737;1264;25247;-59
2022/08/19 09:51:15;;;;;;;10.90;9.80;;;28.50;60.90;;;;;;221508;1261;22544;-58
2022/08/19 09:56:22;;;;;;;9.80;8.90;;;28.60;60.90;;;;;;221385;1261;25474;-60
2022/08/19 10:01:28;;;;;;;10.10;9.10;;;28.60;61.10;;;;;;221793;1264;22596;-62
2022/08/19 10:06:32;;;;;;;10.30;9.20;;;28.70;60.90;;;;;;221467;1262;22556;-61
2022/08/19 10:11:49;;;;;;;9.40;8.50;;;28.70;60.80;;;;;;221348;1262;23026;-61
2022/08/19 10:16:57;;;;;;;9.30;8.50;;;28.70;60.70;;;;;;221222;1262;24567;-65
2022/08/19 10:22:04;;;;;;;9.10;8.20;;;28.70;60.60;;;;;;221384;1265;25254;-61
2022/08/19 10:27:13;;;;;;;10.20;8.50;;;28.80;60.50;;;;;;221397;1261;22561;-62
2022/08/19 10:32:17;;;;;;;9.90;8.90;;;28.80;60.40;;;;;;221104;1265;22626;-64
2022/08/19 10:37:36;;;;;;;9.10;8.20;;;28.90;60.40;;;;;;221593;1262;25228;-59
2022/08/19 10:42:49;;;;;;;9.30;8.20;;;28.90;60.30;;;;;;221152;1265;25305;-63
2022/08/19 10:47:55;;;;;;;9.30;8.30;;;29.00;60.40;;;;;;221055;1265;22531;-59
2022/08/19 10:53:05;;;;;;;12.20;8.40;;;28.90;60.30;;;;;;221461;1265;22706;-63
2022/08/19 10:58:13;;;;;;;10.80;9.00;;;29.00;60.40;;;;;;221248;1265;24212;-62
2022/08/19 11:03:16;;;;;;;9.80;8.80;;;29.00;60.20;;;;;;221270;1265;24360;-64
2022/08/19 11:08:18;;;;;;;9.50;8.50;;;29.10;60.20;;;;;;221052;1265;24980;-61
2022/08/19 11:13:26;;;;;;;9.30;8.10;;;29.10;60.20;;;;;;221163;1266;24240;-58
2022/08/19 11:18:29;;;;;;;9.40;8.50;;;29.20;60.10;;;;;;221415;1265;22981;-61
2022/08/19 11:23:31;;;;;;;11.00;9.10;;;29.20;60.00;;;;;;221301;1262;22547;-61
2022/08/19 11:28:34;;;;;;;9.40;8.50;;;29.20;60.10;;;;;;221626;1262;22766;-61
2022/08/19 11:33:36;;;;;;;10.10;8.40;;;29.20;60.00;;;;;;221191;1262;22600;-63
2022/08/19 11:38:39;;;;;;;9.30;8.30;;;29.30;60.00;;;;;;221561;1262;22679;-61
2022/08/19 11:43:41;;;;;;;10.10;8.50;;;29.40;60.00;;;;;;221647;1261;22539;-61
2022/08/19 11:48:44;;;;;;;8.80;8.00;;;29.30;59.90;;;;;;221662;1262;25315;-62
2022/08/19 11:53:50;;;;;;;8.40;7.40;;;29.40;60.00;;;;;;221441;1262;22822;-62
2022/08/19 11:58:56;;;;;;;9.80;7.80;;;29.40;60.00;;;;;;221446;1262;22535;-60
2022/08/19 12:03:59;;;;;;;9.20;8.30;;;29.40;60.00;;;;;;221287;1262;22546;-62
2022/08/19 12:09:06;;;;;;;9.10;8.30;;;29.50;59.90;;;;;;221508;1262;22700;-61
2022/08/19 12:14:13;;;;;;;8.80;7.90;;;29.50;60.00;;;;;;221353;1262;25305;-61
2022/08/19 12:19:16;;;;;;;8.60;7.80;;;29.50;60.30;;;;;;221430;1262;25492;-61
2022/08/19 12:24:24;;;;;;;8.70;7.80;;;29.50;60.20;;;;;;221377;1262;24756;-61
2022/08/19 12:29:29;;;;;;;9.00;8.10;;;29.60;60.00;;;;;;221532;1262;25598;-62
2022/08/19 12:34:32;;;;;;;10.20;8.80;;;29.60;60.10;;;;;;221551;1262;25232;-61
2022/08/19 12:39:36;;;;;;;8.50;7.60;;;29.60;60.00;;;;;;221381;1262;22528;-54
2022/08/19 12:44:41;;;;;;;8.50;7.60;;;29.60;60.00;;;;;;221679;1262;26520;-59
2022/08/19 12:49:45;;;;;;;7.70;6.90;;;29.60;60.10;;;;;;221439;1262;22528;-61
2022/08/19 12:54:58;;;;;;;7.90;7.10;;;29.70;60.00;;;;;;221443;1261;24405;-64
2022/08/19 13:00:13;;;;;;;8.10;7.30;;;29.70;60.00;;;;;;221662;1264;22535;-60
2022/08/19 13:05:24;;;;;;;7.60;6.80;;;29.70;60.00;;;;;;221453;1262;22582;-64
2022/08/19 13:10:31;;;;;;;7.50;6.70;;;29.70;60.10;;;;;;221334;1263;22606;-61
2022/08/19 13:15:35;;;;;;;7.30;6.60;;;29.70;59.80;;;;;;221419;1262;24204;-60
2022/08/19 13:20:40;;;;;;;7.40;6.70;;;29.70;59.90;;;;;;221303;1265;22564;-63
2022/08/19 13:25:42;;;;;;;7.10;6.50;;;29.70;59.80;;;;;;221453;1262;22718;-61
2022/08/19 13:36:10;;;;;;;8.30;6.80;;;29.70;59.40;;;;;;221248;1265;22547;-60
2022/08/19 13:41:13;;;;;;;7.70;6.90;;;29.70;59.40;;;;;;221317;1265;22542;-59
2022/08/19 13:46:16;;;;;;;8.50;6.40;;;29.80;59.30;;;;;;221201;1265;22707;-64
2022/08/19 13:51:19;;;;;;;9.00;7.00;;;29.80;59.30;;;;;;221353;1265;22534;-61
2022/08/19 13:56:21;;;;;;;7.30;6.20;;;29.80;59.20;;;;;;221395;1263;25241;-58
2022/08/19 14:01:30;;;;;;;7.50;6.40;;;29.80;59.30;;;;;;221085;1265;24357;-60
2022/08/19 14:06:32;;;;;;;8.30;6.70;;;29.80;59.30;;;;;;221424;1263;22667;-61
2022/08/19 14:11:35;;;;;;;7.00;6.30;;;29.70;59.40;;;;;;221083;1262;24191;-60
2022/08/19 14:16:37;;;;;;;6.80;6.10;;;29.70;59.30;;;;;;221468;1261;25350;-58
2022/08/19 14:21:40;;;;;;;7.40;6.50;;;29.70;59.20;;;;;;221685;1262;25406;-57
2022/08/19 14:26:43;;;;;;;7.40;6.00;;;29.70;59.70;;;;;;221135;1262;22600;-61
2022/08/19 14:31:46;;;;;;;7.00;6.30;;;29.70;59.40;;;;;;221533;1262;23102;-61
2022/08/19 14:36:48;;;;;;;8.10;6.50;;;29.70;59.50;;;;;;221571;1261;22714;-61
2022/08/19 14:41:51;;;;;;;8.30;6.60;;;29.70;59.60;;;;;;221359;1262;26261;-60
2022/08/19 14:47:00;;;;;;;7.10;5.80;;;29.70;60.00;;;;;;221205;1261;22548;-60
2022/08/19 14:52:04;;;;;;;7.00;6.30;;;29.60;59.70;;;;;;221636;1261;22968;-61
2022/08/19 14:57:06;;;;;;;7.50;6.30;;;29.60;59.70;;;;;;221315;1261;25364;-60
2022/08/19 15:02:09;;;;;;;8.30;5.60;;;29.60;60.00;;;;;;221607;1262;24245;-60
2022/08/19 15:07:31;;;;;;;8.30;5.80;;;29.60;59.70;;;;;;221499;1262;22538;-60
2022/08/19 15:12:39;;;;;;;6.80;5.70;;;29.60;59.60;;;;;;221298;1262;22554;-63
2022/08/19 15:17:42;;;;;;;6.90;5.50;;;29.60;59.60;;;;;;221527;1262;22539;-59
2022/08/19 15:22:48;;;;;;;6.80;5.80;;;29.60;59.90;;;;;;221469;1265;26480;-59
2022/08/19 15:27:52;;;;;;;6.60;6.00;;;29.60;60.40;;;;;;221265;1262;23953;-60
2022/08/19 15:32:57;;;;;;;11.10;6.70;;;29.50;60.20;;;;;;221248;1262;22566;-62
2022/08/19 15:38:01;;;;;;;10.40;6.70;;;29.50;60.20;;;;;;221432;1265;22531;-57
2022/08/19 15:43:07;;;;;;;8.70;6.50;;;29.50;60.00;;;;;;221106;1262;25232;-60
2022/08/19 15:48:10;;;;;;;10.50;6.70;;;29.50;60.40;;;;;;221560;1265;25358;-60
2022/08/19 15:53:12;;;;;;;9.30;6.70;;;29.50;61.30;;;;;;221459;1261;25339;-61
2022/08/19 16:09:02;;;;;;;9.10;7.20;;;29.50;62.90;;;;;;220802;1262;25676;-61
2022/08/19 16:14:07;;;;;;;12.80;8.40;;;29.60;62.90;;;;;;221386;1261;22540;-60
2022/08/19 16:19:10;;;;;;;14.90;8.90;;;29.60;62.80;;;;;;221441;1261;24048;-60
2022/08/19 16:24:16;;;;;;;12.70;9.00;;;29.50;63.60;;;;;;221524;1262;25201;-60
2022/08/19 16:29:21;;;;;;;13.10;9.50;;;29.50;62.40;;;;;;221516;1262;24256;-59
2022/08/19 16:34:41;;;;;;;12.70;10.20;;;29.50;62.10;;;;;;221329;1262;22570;-60
2022/08/19 16:39:43;;;;;;;17.50;10.70;;;29.50;62.20;;;;;;221148;1261;24364;-57
2022/08/19 16:44:46;;;;;;;17.30;11.10;;;29.50;62.40;;;;;;223060;1261;25234;-58
2022/08/19 16:49:48;;;;;;;13.90;10.40;;;29.50;62.20;;;;;;221032;1262;22682;-64
2022/08/19 16:54:56;;;;;;;13.60;11.50;;;29.50;62.10;;;;;;220142;1265;1312323;-63
2022/08/19 17:00:04;;;;;;;12.90;11.20;;;29.50;62.10;;;;;;221176;1262;24473;-65
2022/08/19 17:05:08;;;;;;;13.60;11.10;;;29.50;61.90;;;;;;221176;1265;25231;-59
2022/08/19 17:10:11;;;;;;;13.60;11.80;;;29.50;61.90;;;;;;220918;1265;24248;-59
2022/08/19 17:15:13;;;;;;;13.90;12.50;;;29.50;61.90;;;;;;221058;1265;22547;-61
2022/08/19 17:20:15;;;;;;;13.00;11.70;;;29.40;61.80;;;;;;220963;1264;25296;-61
2022/08/19 17:25:18;;;;;;;14.10;12.70;;;29.40;61.80;;;;;;221151;1265;25348;-59
2022/08/19 17:30:21;;;;;;;14.30;12.80;;;29.40;62.10;;;;;;221467;1262;23946;-60
2022/08/19 17:35:23;;;;;;;14.40;13.00;;;29.40;62.10;;;;;;221171;1265;24402;-59
2022/08/19 17:40:26;;;;;;;15.40;14.00;;;29.40;61.70;;;;;;220976;1262;25313;-60
2022/08/19 17:45:31;;;;;;;15.60;13.40;;;29.40;62.10;;;;;;221062;1261;22549;-60
2022/08/19 17:50:34;;;;;;;15.30;13.60;;;29.40;61.70;;;;;;221157;1265;24302;-61
2022/08/19 17:55:37;;;;;;;18.40;14.00;;;29.40;61.70;;;;;;221377;1265;22532;-63
2022/08/19 18:00:40;;;;;;;17.10;15.10;;;29.30;62.30;;;;;;221138;1265;22593;-58
2022/08/19 18:05:57;;;;;;;19.20;14.60;;;29.30;61.70;;;;;;221106;1262;22537;-61
2022/08/19 18:11:00;;;;;;;15.20;13.70;;;29.30;61.60;;;;;;221091;1262;22664;-60
2022/08/19 18:16:09;;;;;;;18.60;13.40;;;29.40;61.70;;;;;;221078;1262;24208;-60
2022/08/19 18:21:13;;;;;;;14.20;12.80;;;29.30;61.70;;;;;;221133;1261;25515;-60
2022/08/19 18:26:16;;;;;;;16.00;14.30;;;29.30;61.70;;;;;;221481;1262;25231;-59
2022/08/19 18:31:22;;;;;;;15.10;13.50;;;29.30;61.90;;;;;;221456;1262;22539;-60
2022/08/19 18:36:24;;;;;;;15.20;13.60;;;29.30;61.90;;;;;;221259;1262;25237;-60
2022/08/19 18:52:28;;;;;;;15.30;13.70;;;29.30;62.20;;;;;;221140;1262;22559;-61
2022/08/19 18:57:31;;;;;;;16.00;14.50;;;29.20;62.50;;;;;;221106;1265;24842;-64
2022/08/19 19:02:39;;;;;;;15.80;14.10;;;29.20;62.60;;;;;;221161;1265;22532;-59
2022/08/19 19:07:42;;;;;;;13.80;12.40;;;29.30;62.60;;;;;;221345;1265;22597;-60
2022/08/19 19:12:44;;;;;;;15.00;13.50;;;29.20;62.60;;;;;;221208;1262;24382;-60
2022/08/19 19:17:46;;;;;;;15.50;13.40;;;29.20;62.60;;;;;;221131;1262;25247;-60
2022/08/19 19:22:48;;;;;;;15.50;13.90;;;29.20;62.70;;;;;;221713;1262;22997;-62
2022/08/19 19:27:53;;;;;;;15.40;14.00;;;29.20;62.70;;;;;;221308;1262;22566;-61
2022/08/19 19:32:59;;;;;;;15.70;14.10;;;29.20;62.70;;;;;;221382;1262;22565;-61
2022/08/19 19:38:02;;;;;;;15.90;14.50;;;29.20;62.80;;;;;;221245;1262;25239;-61
2022/08/19 19:43:07;;;;;;;15.60;14.10;;;29.20;62.90;;;;;;221239;1262;24195;-59
2022/08/19 19:48:12;;;;;;;15.40;13.80;;;29.20;63.50;;;;;;221340;1261;22532;-60
2022/08/19 19:53:15;;;;;;;16.40;14.70;;;29.20;63.30;;;;;;221474;1261;24328;-64
2022/08/19 19:58:21;;;;;;;16.80;14.60;;;29.10;63.30;;;;;;221299;1264;22601;-59
2022/08/19 20:03:30;;;;;;;15.90;14.20;;;29.20;63.20;;;;;;221590;1262;26678;-59
2022/08/19 20:14:14;;;;;;;16.20;14.70;;;29.10;63.00;;;;;;221112;1265;24415;-61
2022/08/19 20:19:19;;;;;;;15.80;14.20;;;29.10;63.10;;;;;;221055;1265;24401;-62
2022/08/19 20:24:25;;;;;;;13.90;12.50;;;29.10;62.90;;;;;;221328;1262;22528;-60
2022/08/19 20:29:29;;;;;;;17.10;13.30;;;29.10;62.90;;;;;;221572;1262;24392;-58
2022/08/19 20:34:47;;;;;;;15.60;13.40;;;29.10;63.00;;;;;;220811;1262;22710;-59
2022/08/19 20:39:51;;;;;;;13.70;12.10;;;29.10;63.10;;;;;;221448;1262;24334;-60
2022/08/19 20:44:54;;;;;;;14.20;11.80;;;29.10;63.20;;;;;;221081;1265;22528;-63
2022/08/19 20:49:59;;;;;;;16.10;12.10;;;29.10;63.30;;;;;;221076;1265;22648;-61
2022/08/19 20:55:02;;;;;;;14.60;11.80;;;29.00;63.40;;;;;;221432;1261;22636;-62
2022/08/19 21:00:10;;;;;;;13.60;11.80;;;29.00;63.40;;;;;;221196;1262;22547;-60
2022/08/19 21:05:16;;;;;;;12.30;11.10;;;29.00;63.40;;;;;;221446;1265;25383;-61
2022/08/19 21:10:19;;;;;;;15.50;11.00;;;29.00;63.80;;;;;;221295;1265;22683;-58
2022/08/19 21:15:24;;;;;;;11.80;10.10;;;29.00;63.60;;;;;;221169;1262;22554;-61
2022/08/19 21:20:26;;;;;;;12.70;10.60;;;29.00;63.60;;;;;;221375;1262;24355;-61
2022/08/19 21:25:29;;;;;;;11.30;9.90;;;29.00;63.60;;;;;;221351;1262;25353;-59
2022/08/19 21:30:35;;;;;;;11.30;10.00;;;29.00;63.00;;;;;;221656;1262;24303;-60
2022/08/19 21:35:39;;;;;;;11.40;9.60;;;29.00;63.40;;;;;;221382;1261;22533;-60
2022/08/19 21:40:42;;;;;;;12.00;10.00;;;29.00;63.50;;;;;;221245;1262;23256;-60
2022/08/19 21:45:46;;;;;;;10.50;9.20;;;28.90;64.20;;;;;;221437;1262;22525;-60
2022/08/19 21:50:49;;;;;;;11.90;9.80;;;29.00;63.70;;;;;;221559;1262;22588;-61
2022/08/19 21:55:52;;;;;;;11.40;9.20;;;28.90;63.60;;;;;;221242;1262;22700;-60
2022/08/19 22:00:57;;;;;;;9.90;8.90;;;29.00;64.20;;;;;;221449;1262;22974;-60
2022/08/19 22:06:02;;;;;;;11.30;9.50;;;28.90;63.60;;;;;;221383;1261;24271;-61
2022/08/19 22:11:04;;;;;;;11.10;8.90;;;28.90;63.60;;;;;;221542;1262;22617;-61
2022/08/19 22:16:08;;;;;;;12.30;8.90;;;28.90;63.90;;;;;;221271;1262;25291;-59
2022/08/19 22:21:11;;;;;;;10.70;8.40;;;28.90;63.90;;;;;;221260;1262;22697;-60
2022/08/19 22:26:16;;;;;;;12.00;8.50;;;28.90;63.50;;;;;;221272;1261;24357;-60
2022/08/19 22:31:19;;;;;;;11.60;8.80;;;28.90;64.10;;;;;;221344;1262;25241;-60
2022/08/19 22:36:21;;;;;;;14.30;9.00;;;28.90;63.50;;;;;;221225;1262;24211;-60
2022/08/19 22:41:24;;;;;;;12.50;8.70;;;28.90;63.50;;;;;;221331;1262;25318;-59
2022/08/19 22:46:26;;;;;;;10.80;7.90;;;28.80;63.20;;;;;;221218;1261;25395;-61
2022/08/19 22:56:50;;;;;;;9.40;7.10;;;28.80;63.80;;;;;;221698;1262;22646;-60
2022/08/19 23:01:53;;;;;;;11.50;7.40;;;28.80;63.50;;;;;;221474;1262;25315;-59
2022/08/19 23:06:55;;;;;;;10.50;8.00;;;28.80;63.60;;;;;;221234;1261;22534;-61
2022/08/19 23:11:58;;;;;;;10.50;8.00;;;28.80;63.80;;;;;;221239;1262;24308;-60
2022/08/19 23:17:15;;;;;;;11.20;8.00;;;28.80;64.40;;;;;;221168;1262;22559;-58
2022/08/19 23:22:22;;;;;;;10.30;8.10;;;28.80;64.30;;;;;;221330;1262;22554;-58
2022/08/19 23:32:47;;;;;;;10.00;7.80;;;28.90;64.10;;;;;;221261;1262;22644;-61
2022/08/19 23:37:50;;;;;;;12.60;7.70;;;28.90;64.10;;;;;;221075;1265;25240;-60
2022/08/19 23:42:53;;;;;;;10.90;8.10;;;28.90;63.60;;;;;;221043;1262;25349;-57
2022/08/19 23:47:56;;;;;;;12.40;7.80;;;28.90;63.90;;;;;;221100;1265;22685;-62
2022/08/19 23:53:00;;;;;;;9.60;6.80;;;28.90;63.70;;;;;;220879;1265;22567;-61
2022/08/19 23:58:03;;;;;;;9.50;7.40;;;28.90;63.80;;;;;;221372;1262;25110;-60
